Time;durP1;ratioP1;P1;durP2;ratioP2;P2;SDS_P1;SDS_P2;PMS_P1;PMS_P2;Temp;Humidity;BMP_temperature;BMP_pressure;BME280_temperature;BME280_humidity;BME280_pressure;Samples;Min_cycle;Max_cycle;Signal;HPM_P1;HPM_P2
2022/07/18 00:00:17;;;;;;;10.50;4.35;;;17.50;99.90;;;;;;4962249;28;20059;-70
2022/07/18 00:02:44;;;;;;;13.10;4.72;;;17.40;99.90;;;;;;4899547;28;206485;-70
2022/07/18 00:05:10;;;;;;;10.35;4.80;;;17.40;99.90;;;;;;4966148;28;20086;-70
2022/07/18 00:07:37;;;;;;;10.32;4.85;;;17.30;99.90;;;;;;4902217;28;208503;-70
2022/07/18 00:10:03;;;;;;;11.85;4.75;;;17.30;99.90;;;;;;4949459;28;20062;-69
2022/07/18 00:12:30;;;;;;;9.48;4.13;;;17.20;99.90;;;;;;4917549;28;182410;-69
2022/07/18 00:14:56;;;;;;;11.85;4.60;;;17.20;99.90;;;;;;4966473;28;20055;-71
2022/07/18 00:17:22;;;;;;;10.55;4.70;;;17.20;99.90;;;;;;4924062;28;212937;-69
2022/07/18 00:19:49;;;;;;;11.38;4.80;;;17.20;99.90;;;;;;4964369;28;20062;-70
2022/07/18 00:22:15;;;;;;;10.63;4.60;;;17.10;99.90;;;;;;4918208;28;212857;-70
2022/07/18 00:24:41;;;;;;;11.70;4.78;;;17.10;99.90;;;;;;4960979;28;20054;-70
2022/07/18 00:27:07;;;;;;;10.68;4.45;;;17.10;99.90;;;;;;4913275;28;209625;-70
2022/07/18 00:29:36;;;;;;;9.65;4.68;;;17.00;99.90;;;;;;4966775;28;20061;-71
2022/07/18 00:32:05;;;;;;;9.77;4.75;;;17.00;99.90;;;;;;4892425;28;206575;-71
2022/07/18 00:34:31;;;;;;;13.10;5.10;;;17.00;99.90;;;;;;4966444;28;20038;-71
2022/07/18 00:36:57;;;;;;;11.30;4.55;;;16.90;99.90;;;;;;4932163;28;209788;-71
2022/07/18 00:39:24;;;;;;;10.80;4.70;;;16.90;99.90;;;;;;4965898;28;20050;-69
2022/07/18 00:41:51;;;;;;;10.45;4.93;;;16.90;99.90;;;;;;4936448;28;210120;-70
2022/07/18 00:44:19;;;;;;;10.70;4.80;;;16.90;99.90;;;;;;4967528;28;20061;-70
2022/07/18 00:46:45;;;;;;;9.98;5.10;;;16.80;99.90;;;;;;4923205;28;214034;-70
2022/07/18 00:49:11;;;;;;;11.45;4.70;;;16.80;99.90;;;;;;4965390;28;20051;-70
2022/07/18 00:51:38;;;;;;;11.00;4.80;;;16.80;99.90;;;;;;4914115;28;209293;-70
2022/07/18 00:54:04;;;;;;;13.95;5.03;;;16.80;99.90;;;;;;4940919;28;20097;-69
2022/07/18 00:56:31;;;;;;;12.43;4.97;;;16.70;99.90;;;;;;4916231;28;208672;-70
2022/07/18 00:58:57;;;;;;;12.43;5.10;;;16.70;99.90;;;;;;4969601;28;20062;-69
2022/07/18 01:04:10;;;;;;;10.40;4.82;;;16.70;99.90;;;;;;4969829;28;20046;-70
2022/07/18 01:06:36;;;;;;;10.27;5.05;;;16.60;99.90;;;;;;4931349;28;208939;-70
2022/07/18 01:09:02;;;;;;;10.48;4.97;;;16.60;99.90;;;;;;4978271;28;20095;-70
2022/07/18 01:11:28;;;;;;;11.23;5.10;;;16.60;99.90;;;;;;4942440;28;212628;-70
2022/07/18 01:13:55;;;;;;;12.30;4.90;;;16.50;99.90;;;;;;4981126;28;20058;-70
2022/07/18 01:16:21;;;;;;;11.70;4.88;;;16.50;99.90;;;;;;4931881;28;208640;-70
2022/07/18 01:18:48;;;;;;;10.35;4.82;;;16.40;99.90;;;;;;4969957;28;20050;-70
2022/07/18 01:21:15;;;;;;;12.05;5.40;;;16.40;99.90;;;;;;4920389;28;210798;-70
2022/07/18 01:23:42;;;;;;;12.98;5.50;;;16.40;99.90;;;;;;4983604;28;20058;-68
2022/07/18 01:26:11;;;;;;;10.98;4.95;;;16.40;99.90;;;;;;4922369;28;200163;-68
2022/07/18 01:28:39;;;;;;;11.88;5.50;;;16.40;99.90;;;;;;4975045;28;20042;-69
2022/07/18 01:31:05;;;;;;;10.23;5.22;;;16.30;99.90;;;;;;4917662;28;212695;-70
2022/07/18 01:33:33;;;;;;;11.80;5.00;;;16.30;99.90;;;;;;4958647;28;20172;-69
2022/07/18 01:36:00;;;;;;;10.32;5.00;;;16.30;99.90;;;;;;4924598;28;206904;-70
2022/07/18 01:38:30;;;;;;;11.20;5.28;;;16.30;99.90;;;;;;4966992;28;20039;-70
2022/07/18 01:40:57;;;;;;;11.98;5.15;;;16.30;99.90;;;;;;4923781;28;209439;-69
2022/07/18 01:43:24;;;;;;;11.27;5.13;;;16.30;99.90;;;;;;4948271;28;20051;-69
2022/07/18 01:45:50;;;;;;;11.25;5.68;;;16.30;99.90;;;;;;4924108;28;206619;-69
2022/07/18 01:48:17;;;;;;;10.93;5.47;;;16.30;99.90;;;;;;4956191;28;20053;-70
2022/07/18 01:50:43;;;;;;;12.48;5.20;;;16.20;99.90;;;;;;4925075;28;163639;-69
2022/07/18 01:53:09;;;;;;;12.27;5.78;;;16.20;99.90;;;;;;4964240;28;20065;-69
2022/07/18 01:55:35;;;;;;;11.65;5.18;;;16.20;99.90;;;;;;4927613;28;210906;-69
2022/07/18 01:58:02;;;;;;;13.48;5.80;;;16.20;99.90;;;;;;4970186;28;20054;-70
2022/07/18 02:00:28;;;;;;;13.15;5.50;;;16.20;99.90;;;;;;4925633;28;207275;-69
2022/07/18 02:02:54;;;;;;;11.73;5.50;;;16.20;99.90;;;;;;4987407;28;20047;-69
2022/07/18 02:05:20;;;;;;;11.02;5.47;;;16.20;99.90;;;;;;4956982;28;209918;-69
2022/07/18 02:07:46;;;;;;;11.15;5.53;;;16.20;99.90;;;;;;4941866;28;211457;-69
2022/07/18 02:10:19;;;;;;;11.65;5.53;;;16.10;99.90;;;;;;4970174;28;20059;-69
2022/07/18 02:12:46;;;;;;;11.23;5.55;;;16.10;99.90;;;;;;4901751;28;206396;-68
2022/07/18 02:15:14;;;;;;;13.60;6.00;;;16.10;99.90;;;;;;4971520;28;20065;-70
2022/07/18 02:17:41;;;;;;;13.50;6.05;;;16.00;99.90;;;;;;4929633;28;209481;-70
2022/07/18 02:20:11;;;;;;;9.93;5.25;;;16.00;99.90;;;;;;4965365;28;20054;-69
2022/07/18 02:22:37;;;;;;;11.63;5.75;;;16.00;99.90;;;;;;4929877;28;211200;-69
2022/07/18 02:25:04;;;;;;;12.35;5.72;;;16.00;99.90;;;;;;4966781;28;20054;-69
2022/07/18 02:27:31;;;;;;;12.40;5.55;;;16.00;99.90;;;;;;4926394;28;232369;-70
2022/07/18 02:29:57;;;;;;;12.98;5.95;;;16.00;99.90;;;;;;4963704;28;20051;-69
2022/07/18 02:32:24;;;;;;;12.02;5.70;;;15.90;99.90;;;;;;4938295;28;213657;-70
2022/07/18 02:34:50;;;;;;;12.63;5.93;;;15.90;99.90;;;;;;4967894;28;20588;-70
2022/07/18 02:37:16;;;;;;;11.70;5.88;;;15.90;99.90;;;;;;4917651;28;211032;-70
2022/07/18 02:39:43;;;;;;;12.70;5.80;;;15.90;99.90;;;;;;4966006;28;20054;-70
2022/07/18 02:42:09;;;;;;;12.20;5.90;;;15.80;99.90;;;;;;4929841;28;227305;-69
2022/07/18 02:44:35;;;;;;;12.13;5.72;;;15.80;99.90;;;;;;4967360;28;20050;-69
2022/07/18 02:47:02;;;;;;;11.85;5.78;;;15.80;99.90;;;;;;4915439;28;221568;-69
2022/07/18 02:49:28;;;;;;;11.68;5.65;;;15.70;99.90;;;;;;4966943;28;20046;-70
2022/07/18 02:52:04;;;;;;;10.70;5.20;;;15.70;99.90;;;;;;4917649;28;211020;-69
2022/07/18 02:54:32;;;;;;;12.23;6.38;;;15.70;99.90;;;;;;4970835;28;20043;-69
2022/07/18 02:56:58;;;;;;;11.48;5.45;;;15.70;99.90;;;;;;4930143;28;214073;-70
2022/07/18 02:59:25;;;;;;;12.38;5.97;;;15.70;99.90;;;;;;4967368;28;20054;-69
2022/07/18 03:01:52;;;;;;;13.10;6.00;;;15.70;99.90;;;;;;4926165;28;211939;-69
2022/07/18 03:04:19;;;;;;;16.85;6.00;;;15.70;99.90;;;;;;4979212;28;20428;-68
2022/07/18 03:06:46;;;;;;;14.02;6.00;;;15.70;99.90;;;;;;4926327;28;166166;-69
2022/07/18 03:09:14;;;;;;;11.73;5.45;;;15.70;99.90;;;;;;4963770;28;20062;-69
2022/07/18 03:11:40;;;;;;;13.40;6.07;;;15.70;99.90;;;;;;4928608;28;211257;-69
2022/07/18 03:14:06;;;;;;;11.55;5.70;;;15.70;99.90;;;;;;4965595;28;20054;-69
2022/07/18 03:16:33;;;;;;;10.60;5.65;;;15.70;99.90;;;;;;4923423;28;200828;-69
2022/07/18 03:18:59;;;;;;;11.60;5.57;;;15.60;99.90;;;;;;4947680;28;20143;-70
2022/07/18 03:21:25;;;;;;;11.57;5.90;;;15.60;99.90;;;;;;4929484;28;206641;-70
2022/07/18 03:23:51;;;;;;;12.88;5.70;;;15.60;99.90;;;;;;4974674;28;20369;-70
2022/07/18 03:26:19;;;;;;;11.52;5.90;;;15.60;99.90;;;;;;4927455;28;212636;-70
2022/07/18 03:28:45;;;;;;;12.15;5.60;;;15.60;99.90;;;;;;4959512;28;20536;-69
2022/07/18 03:31:11;;;;;;;12.38;5.88;;;15.60;99.90;;;;;;4932543;28;217392;-70
2022/07/18 03:33:38;;;;;;;18.73;5.85;;;15.70;99.90;;;;;;4972362;28;20385;-69
2022/07/18 03:36:05;;;;;;;11.43;5.80;;;15.60;99.90;;;;;;4926343;28;214077;-69
2022/07/18 03:38:31;;;;;;;12.73;5.95;;;15.60;99.90;;;;;;4962672;28;20083;-69
2022/07/18 03:40:58;;;;;;;13.95;5.68;;;15.70;99.90;;;;;;4924638;28;209652;-69
2022/07/18 03:43:24;;;;;;;11.65;5.72;;;15.70;99.90;;;;;;4970787;28;20054;-70
2022/07/18 03:45:50;;;;;;;11.13;5.55;;;15.70;99.90;;;;;;4920396;28;206553;-69
2022/07/18 03:48:16;;;;;;;10.73;5.40;;;15.70;99.90;;;;;;4951831;28;20058;-69
2022/07/18 03:50:42;;;;;;;14.00;5.90;;;15.60;99.90;;;;;;4923310;28;237690;-69
2022/07/18 03:53:08;;;;;;;10.95;5.45;;;15.70;99.90;;;;;;4982346;28;20055;-70
2022/07/18 03:55:35;;;;;;;13.35;5.72;;;15.60;99.90;;;;;;4933694;28;209923;-69
2022/07/18 03:58:01;;;;;;;12.23;5.80;;;15.70;99.90;;;;;;4978399;28;20054;-69
2022/07/18 04:00:27;;;;;;;12.88;5.93;;;15.60;99.90;;;;;;4925080;28;218770;-68
2022/07/18 04:02:53;;;;;;;12.38;5.55;;;15.60;99.90;;;;;;4976398;23;20326;-80
2022/07/18 04:05:19;;;;;;;12.02;5.88;;;15.70;99.90;;;;;;4951832;28;207241;-80
2022/07/18 04:07:45;;;;;;;11.45;5.47;;;15.60;99.90;;;;;;4945181;28;207838;-81
2022/07/18 04:10:12;;;;;;;11.48;5.68;;;15.60;99.90;;;;;;4995060;28;20050;-78
2022/07/18 04:12:50;;;;;;;12.90;5.45;;;15.60;99.90;;;;;;4934219;28;206159;-79
2022/07/18 04:15:16;;;;;;;11.68;5.32;;;15.60;99.90;;;;;;4995982;28;20062;-81
2022/07/18 04:17:43;;;;;;;11.32;5.90;;;15.60;99.90;;;;;;4935875;28;216774;-80
2022/07/18 04:20:10;;;;;;;13.02;6.32;;;15.70;99.90;;;;;;4979212;28;20061;-80
2022/07/18 04:22:49;;;;;;;13.10;5.63;;;15.70;99.90;;;;;;4962542;28;211646;-80
2022/07/18 04:25:16;;;;;;;13.25;5.90;;;15.70;99.90;;;;;;4997623;28;20170;-81
2022/07/18 04:27:42;;;;;;;13.32;5.50;;;15.70;99.90;;;;;;4953268;28;204460;-80
2022/07/18 04:30:09;;;;;;;12.60;5.38;;;15.70;99.90;;;;;;4997244;28;20049;-80
2022/07/18 04:32:35;;;;;;;15.05;5.30;;;15.70;99.90;;;;;;4943024;28;208455;-80
2022/07/18 04:35:02;;;;;;;15.55;5.60;;;15.80;99.90;;;;;;4990965;28;20046;-80
2022/07/18 04:37:32;;;;;;;13.40;5.20;;;15.80;99.90;;;;;;4939186;28;214346;-80
2022/07/18 04:39:59;;;;;;;13.48;5.18;;;15.90;99.90;;;;;;4969687;28;20057;-80
2022/07/18 04:42:26;;;;;;;11.00;5.03;;;15.90;99.90;;;;;;4947421;28;218111;-80
2022/07/18 04:44:53;;;;;;;12.60;4.85;;;16.00;99.90;;;;;;4995814;28;20074;-80
2022/07/18 04:47:19;;;;;;;15.15;4.90;;;16.10;99.90;;;;;;4947449;28;212893;-80
2022/07/18 04:49:45;;;;;;;10.60;4.80;;;16.20;99.90;;;;;;4985325;28;20106;-80
2022/07/18 04:52:11;;;;;;;10.32;4.93;;;16.20;99.90;;;;;;4949968;28;206702;-79
2022/07/18 04:54:38;;;;;;;13.38;5.18;;;16.30;99.90;;;;;;4998792;28;20070;-80
2022/07/18 04:57:04;;;;;;;15.00;5.25;;;16.40;99.90;;;;;;4938471;28;221365;-80
2022/07/18 04:59:30;;;;;;;14.75;4.88;;;16.40;99.90;;;;;;4975633;28;20046;-81
2022/07/18 05:01:56;;;;;;;11.57;4.60;;;16.50;99.90;;;;;;4945861;28;206776;-80
2022/07/18 05:04:23;;;;;;;12.52;4.95;;;16.50;99.90;;;;;;4975481;28;20054;-81
2022/07/18 05:06:49;;;;;;;12.02;4.90;;;16.60;99.90;;;;;;4929744;28;208607;-79
2022/07/18 05:09:15;;;;;;;10.75;4.97;;;16.60;99.90;;;;;;4976836;28;20050;-80
2022/07/18 05:11:41;;;;;;;11.98;5.20;;;16.80;99.90;;;;;;4944996;28;196224;-80
2022/07/18 05:14:07;;;;;;;11.77;4.90;;;16.80;99.90;;;;;;4972050;28;20046;-79
2022/07/18 05:16:33;;;;;;;10.52;4.50;;;16.80;99.90;;;;;;4948731;28;208393;-81
2022/07/18 05:19:00;;;;;;;10.98;4.47;;;16.90;99.90;;;;;;4982060;28;20848;-80
2022/07/18 05:21:26;;;;;;;10.50;4.32;;;16.90;99.90;;;;;;4951162;28;217720;-79
2022/07/18 05:23:52;;;;;;;10.13;4.28;;;16.90;99.90;;;;;;4987452;28;20054;-80
2022/07/18 05:26:18;;;;;;;9.98;3.88;;;17.00;99.90;;;;;;4941454;28;208652;-79
2022/07/18 05:28:44;;;;;;;10.95;4.47;;;17.00;99.90;;;;;;4976677;28;20047;-80
2022/07/18 05:31:11;;;;;;;12.00;4.43;;;17.10;99.90;;;;;;4967747;28;206453;-79
2022/07/18 05:33:38;;;;;;;9.90;4.07;;;17.20;99.90;;;;;;5005978;28;20072;-78
2022/07/18 05:36:04;;;;;;;9.70;3.83;;;17.30;99.90;;;;;;4964648;28;205695;-79
2022/07/18 05:38:32;;;;;;;11.27;3.95;;;17.40;99.90;;;;;;4982112;28;20046;-77
2022/07/18 05:40:58;;;;;;;12.38;3.97;;;17.50;99.90;;;;;;4962923;28;203269;-79
2022/07/18 05:43:24;;;;;;;15.32;4.22;;;17.60;99.90;;;;;;4980750;28;20077;-81
2022/07/18 05:45:50;;;;;;;10.73;3.90;;;17.70;99.90;;;;;;4931618;28;217024;-81
2022/07/18 05:48:16;;;;;;;10.13;3.63;;;17.80;99.90;;;;;;4980982;28;20042;-81
2022/07/18 05:50:42;;;;;;;10.90;3.60;;;18.00;99.90;;;;;;4950003;28;206324;-80
2022/07/18 05:53:09;;;;;;;12.23;3.83;;;18.00;99.90;;;;;;4966632;28;20047;-81
2022/07/18 05:55:36;;;;;;;11.10;3.50;;;18.10;99.90;;;;;;4951936;28;212247;-81
2022/07/18 05:58:02;;;;;;;11.55;3.53;;;18.20;99.60;;;;;;4963864;28;20133;-81
2022/07/18 06:00:29;;;;;;;9.57;3.50;;;18.30;99.50;;;;;;4930561;28;212116;-82
2022/07/18 06:02:55;;;;;;;10.82;3.30;;;18.40;99.50;;;;;;4960677;28;20030;-79
2022/07/18 06:05:22;;;;;;;8.65;3.08;;;18.40;99.40;;;;;;4981742;28;206422;-81
2022/07/18 06:07:48;;;;;;;9.05;3.22;;;18.50;99.00;;;;;;4964171;28;201921;-80
2022/07/18 06:10:14;;;;;;;10.30;3.60;;;18.60;99.00;;;;;;5003818;28;20064;-80
2022/07/18 06:12:41;;;;;;;15.65;3.83;;;18.70;98.60;;;;;;4965070;28;188384;-79
2022/07/18 06:15:07;;;;;;;12.68;3.53;;;18.80;98.50;;;;;;5001032;28;20162;-81
2022/07/18 06:17:34;;;;;;;12.68;3.80;;;18.90;98.50;;;;;;4956600;28;206068;-79
2022/07/18 06:20:00;;;;;;;12.45;3.53;;;18.90;98.20;;;;;;4999508;28;20058;-79
2022/07/18 06:22:26;;;;;;;11.18;3.58;;;19.10;98.20;;;;;;4956519;28;188533;-79
2022/07/18 06:24:52;;;;;;;10.73;3.47;;;19.20;98.20;;;;;;4999697;28;20067;-79
2022/07/18 06:27:18;;;;;;;10.63;3.25;;;19.40;98.10;;;;;;4950090;28;224934;-81
2022/07/18 06:29:45;;;;;;;10.95;3.40;;;19.50;97.90;;;;;;4997779;28;20055;-81
2022/07/18 06:32:11;;;;;;;13.05;3.45;;;19.60;97.80;;;;;;4948034;28;204633;-81
2022/07/18 06:34:37;;;;;;;11.40;3.22;;;19.70;97.70;;;;;;4996165;28;20058;-81
2022/07/18 06:37:03;;;;;;;9.38;2.83;;;19.80;97.90;;;;;;4932879;28;206059;-81
2022/07/18 06:39:29;;;;;;;11.27;2.95;;;20.10;97.10;;;;;;4975003;28;20158;-79
2022/07/18 06:41:55;;;;;;;8.07;3.05;;;20.30;96.70;;;;;;4965059;28;212208;-79
2022/07/18 06:44:21;;;;;;;9.77;2.90;;;20.70;96.30;;;;;;4988131;28;20050;-80
2022/07/18 06:46:48;;;;;;;14.80;2.72;;;21.00;96.30;;;;;;4947647;28;221527;-80
2022/07/18 06:49:15;;;;;;;8.63;2.50;;;21.30;95.90;;;;;;5001437;28;20157;-79
2022/07/18 06:51:41;;;;;;;10.52;3.03;;;21.50;94.70;;;;;;4961547;28;206917;-81
2022/07/18 06:54:07;;;;;;;10.73;2.78;;;21.70;94.80;;;;;;4993773;28;20049;-81
2022/07/18 06:56:33;;;;;;;9.32;2.97;;;21.90;94.50;;;;;;4943999;28;206384;-81
2022/07/18 06:59:00;;;;;;;10.48;2.70;;;22.10;93.30;;;;;;4991145;28;20607;-82
2022/07/18 07:01:26;;;;;;;9.73;2.72;;;22.10;92.60;;;;;;4947803;28;206683;-81
2022/07/18 07:03:52;;;;;;;10.73;2.60;;;22.20;92.20;;;;;;4987232;28;21384;-81
2022/07/18 07:06:18;;;;;;;10.55;2.67;;;22.20;91.00;;;;;;4959929;28;207762;-80
2022/07/18 07:08:44;;;;;;;9.32;2.97;;;22.20;91.00;;;;;;5000011;28;20070;-79
2022/07/18 07:11:10;;;;;;;10.18;3.05;;;22.40;90.10;;;;;;4957244;28;135164;-79
2022/07/18 07:13:37;;;;;;;7.82;2.80;;;22.60;90.60;;;;;;4979200;28;20054;-81
2022/07/18 07:16:03;;;;;;;10.75;2.60;;;22.90;90.60;;;;;;4957767;28;206664;-79
2022/07/18 07:18:29;;;;;;;9.98;3.28;;;23.00;89.40;;;;;;5001456;28;20055;-81
2022/07/18 07:20:56;;;;;;;9.48;2.50;;;23.10;86.00;;;;;;4947504;28;206204;-80
2022/07/18 07:23:22;;;;;;;8.25;2.60;;;23.30;87.00;;;;;;4972345;28;20078;-80
2022/07/18 07:25:48;;;;;;;12.57;2.72;;;23.40;83.90;;;;;;4941816;28;204025;-81
2022/07/18 07:28:14;;;;;;;9.80;2.97;;;23.60;86.70;;;;;;4970230;28;20063;-81
2022/07/18 07:30:41;;;;;;;10.45;2.65;;;23.80;85.30;;;;;;4953945;28;211981;-81
2022/07/18 07:33:09;;;;;;;8.32;2.40;;;24.10;85.60;;;;;;4967172;28;20480;-80
2022/07/18 07:35:35;;;;;;;9.35;2.45;;;24.30;84.00;;;;;;4953021;28;210939;-82
2022/07/18 07:38:01;;;;;;;8.05;2.40;;;24.50;80.70;;;;;;4999351;28;20062;-81
2022/07/18 07:40:28;;;;;;;8.45;2.60;;;24.60;80.40;;;;;;4933460;28;216777;-81
2022/07/18 07:43:09;;;;;;;8.50;2.63;;;24.90;79.90;;;;;;4994405;28;20102;-81
2022/07/18 07:45:36;;;;;;;11.77;2.63;;;25.10;76.00;;;;;;4950748;28;216616;-80
2022/07/18 07:48:03;;;;;;;9.38;2.42;;;25.20;78.40;;;;;;4983599;28;20058;-81
2022/07/18 07:50:29;;;;;;;9.30;2.15;;;25.20;77.10;;;;;;4945802;28;207913;-81
2022/07/18 07:52:57;;;;;;;9.00;2.30;;;25.40;76.70;;;;;;4984437;28;20039;-80
2022/07/18 07:55:23;;;;;;;11.00;2.40;;;25.50;76.00;;;;;;4961876;28;211349;-81
2022/07/18 07:57:50;;;;;;;8.73;2.30;;;25.50;73.30;;;;;;4933923;28;202552;-80
2022/07/18 08:00:16;;;;;;;10.02;2.22;;;25.50;72.00;;;;;;4993534;28;20054;-82
2022/07/18 08:03:01;;;;;;;7.47;2.03;;;25.40;70.70;;;;;;4938425;28;119230;-83
2022/07/18 08:05:33;;;;;;;8.48;2.00;;;25.30;67.20;;;;;;4966072;28;224436;-82
2022/07/18 08:08:01;;;;;;;8.23;2.10;;;25.40;66.10;;;;;;4998581;28;20054;-82
2022/07/18 08:10:28;;;;;;;12.00;2.10;;;25.50;66.60;;;;;;4956927;28;209765;-82
2022/07/18 08:12:56;;;;;;;11.30;2.30;;;25.60;66.50;;;;;;4972537;28;20053;-82
2022/07/18 08:15:22;;;;;;;9.43;2.20;;;25.80;66.10;;;;;;4979211;28;211056;-83
2022/07/18 08:17:48;;;;;;;7.60;1.83;;;25.80;63.70;;;;;;4988980;28;159018;-82
2022/07/18 08:20:18;;;;;;;11.85;2.03;;;25.80;63.90;;;;;;4983064;28;20061;-82
2022/07/18 08:23:00;;;;;;;9.10;2.00;;;25.90;63.40;;;;;;4923952;28;217934;-83
2022/07/18 08:25:29;;;;;;;8.70;2.00;;;26.30;61.60;;;;;;4962145;28;207645;-81
2022/07/18 08:27:56;;;;;;;7.63;1.92;;;26.50;63.00;;;;;;4993190;28;20054;-82
2022/07/18 08:30:22;;;;;;;10.57;1.85;;;26.70;61.10;;;;;;4961322;28;208904;-83
2022/07/18 08:32:49;;;;;;;6.75;1.70;;;26.90;60.00;;;;;;4944059;28;272919;-82
2022/07/18 08:35:15;;;;;;;9.07;1.70;;;27.00;60.50;;;;;;4983382;28;20594;-83
2022/07/18 08:37:41;;;;;;;10.27;1.92;;;27.30;60.30;;;;;;4947294;28;209498;-82
2022/07/18 08:40:08;;;;;;;7.82;1.70;;;27.50;56.80;;;;;;4999608;28;20046;-83
2022/07/18 08:42:35;;;;;;;7.38;1.65;;;27.70;56.70;;;;;;4959077;28;205625;-82
2022/07/18 08:45:03;;;;;;;7.57;1.92;;;27.60;53.60;;;;;;5000429;28;20050;-82
2022/07/18 08:47:30;;;;;;;7.45;1.65;;;27.60;55.10;;;;;;4949543;28;212104;-83
2022/07/18 08:49:57;;;;;;;8.45;1.80;;;27.80;53.90;;;;;;5011561;28;20049;-82
2022/07/18 08:52:24;;;;;;;8.40;1.65;;;27.90;53.30;;;;;;4967794;28;206747;-83
2022/07/18 08:54:50;;;;;;;7.45;2.28;;;28.00;54.10;;;;;;4998926;28;20499;-83
2022/07/18 08:57:17;;;;;;;8.90;1.83;;;28.10;53.20;;;;;;4968100;28;222577;-83
2022/07/18 08:59:44;;;;;;;7.78;1.80;;;28.10;54.00;;;;;;4992593;28;20054;-83
2022/07/18 09:02:10;;;;;;;8.63;1.90;;;28.30;53.70;;;;;;4941363;28;525830;-82
2022/07/18 09:04:42;;;;;;;9.77;1.92;;;28.40;53.30;;;;;;4996756;28;20055;-83
2022/07/18 09:07:22;;;;;;;7.38;1.70;;;28.30;52.50;;;;;;4952314;28;211014;-82
2022/07/18 09:10:03;;;;;;;8.32;1.67;;;28.10;52.70;;;;;;5000133;28;20046;-82
2022/07/18 09:12:33;;;;;;;11.70;2.05;;;28.00;51.10;;;;;;4941366;28;206156;-83
2022/07/18 09:15:14;;;;;;;8.27;1.73;;;27.80;51.10;;;;;;4979512;28;20050;-82
2022/07/18 09:17:40;;;;;;;12.05;1.55;;;27.80;50.00;;;;;;4953892;28;193543;-83
2022/07/18 09:20:15;;;;;;;7.07;1.75;;;28.00;52.40;;;;;;4998135;28;20050;-82
2022/07/18 09:22:48;;;;;;;10.82;1.75;;;28.30;52.30;;;;;;4951137;28;208389;-83
2022/07/18 09:25:19;;;;;;;8.95;1.83;;;28.70;51.50;;;;;;5005932;28;20081;-84
2022/07/18 09:27:56;;;;;;;7.85;1.80;;;28.90;51.00;;;;;;4938196;28;211360;-83
2022/07/18 09:30:26;;;;;;;8.68;1.63;;;29.10;49.50;;;;;;4983912;28;205709;-83
2022/07/18 09:33:10;;;;;;;9.18;1.85;;;29.30;48.70;;;;;;4966033;28;205354;-83
2022/07/18 09:35:37;;;;;;;8.18;1.67;;;29.40;46.80;;;;;;4952667;28;206387;-83
2022/07/18 09:38:03;;;;;;;8.07;1.80;;;29.60;48.80;;;;;;4994997;28;20085;-83
2022/07/18 09:40:31;;;;;;;11.77;1.90;;;29.80;48.80;;;;;;4936013;28;199839;-83
2022/07/18 09:43:06;;;;;;;8.10;1.90;;;30.00;46.50;;;;;;4987387;28;20057;-83
2022/07/18 09:45:33;;;;;;;8.75;1.73;;;29.90;45.50;;;;;;4937490;28;226472;-83
2022/07/18 09:48:09;;;;;;;8.75;1.80;;;29.90;46.90;;;;;;4979467;28;20058;-84
2022/07/18 09:50:36;;;;;;;9.85;2.10;;;29.90;45.20;;;;;;4949385;28;210361;-83
2022/07/18 09:53:10;;;;;;;8.07;1.70;;;30.10;46.30;;;;;;5014180;28;20054;-83
2022/07/18 09:55:48;;;;;;;10.30;1.90;;;30.30;42.60;;;;;;4942853;28;203675;-84
2022/07/18 09:58:17;;;;;;;8.63;1.92;;;30.40;45.40;;;;;;4974635;28;20065;-84
2022/07/18 10:00:44;;;;;;;10.13;2.37;;;30.60;45.00;;;;;;4952433;28;206131;-83
2022/07/18 10:03:10;;;;;;;11.85;2.20;;;30.70;43.80;;;;;;4988131;28;20050;-83
2022/07/18 10:05:39;;;;;;;10.30;2.10;;;30.60;44.40;;;;;;4955991;28;209230;-84
2022/07/18 10:08:08;;;;;;;7.38;1.90;;;30.90;43.70;;;;;;4991906;28;20063;-83
2022/07/18 10:10:36;;;;;;;8.48;1.90;;;31.20;43.10;;;;;;4954458;28;211017;-83
2022/07/18 10:13:04;;;;;;;8.20;2.00;;;31.30;43.20;;;;;;4972773;28;20058;-83
2022/07/18 10:15:33;;;;;;;9.75;2.05;;;31.10;42.90;;;;;;4944050;28;213827;-81
2022/07/18 10:18:00;;;;;;;7.70;1.88;;;31.20;42.80;;;;;;5026732;28;20042;-80
2022/07/18 10:20:27;;;;;;;9.68;1.90;;;31.10;42.10;;;;;;4969933;28;436131;-80
2022/07/18 10:22:57;;;;;;;10.52;1.95;;;31.20;43.40;;;;;;5000162;28;209972;-81
2022/07/18 10:25:23;;;;;;;9.50;2.15;;;31.20;42.70;;;;;;4984111;28;205461;-81
2022/07/18 10:28:04;;;;;;;10.57;1.98;;;31.40;43.40;;;;;;4952797;28;216390;-82
2022/07/18 10:30:38;;;;;;;10.68;2.00;;;31.50;42.70;;;;;;4951435;28;212628;-82
2022/07/18 10:33:36;;;;;;;10.68;2.40;;;31.80;42.20;;;;;;4983270;28;20062;-82
2022/07/18 10:36:12;;;;;;;9.23;2.15;;;32.10;40.90;;;;;;4951996;28;205047;-83
2022/07/18 10:38:59;;;;;;;9.13;2.05;;;32.10;42.10;;;;;;5000776;28;20048;-81
2022/07/18 10:41:25;;;;;;;7.93;2.00;;;32.50;42.10;;;;;;4947094;28;205878;-82
2022/07/18 10:43:51;;;;;;;8.88;2.08;;;32.90;40.90;;;;;;4980564;28;20080;-82
2022/07/18 10:46:17;;;;;;;8.55;2.40;;;33.10;39.90;;;;;;4928127;28;244799;-81
2022/07/18 10:48:45;;;;;;;8.10;2.10;;;33.10;39.70;;;;;;4988628;28;20069;-82
2022/07/18 10:51:12;;;;;;;7.72;1.92;;;33.40;39.30;;;;;;4954926;28;205945;-82
2022/07/18 10:53:57;;;;;;;7.50;2.00;;;33.60;40.30;;;;;;4995837;28;20066;-82
2022/07/18 10:56:39;;;;;;;9.73;2.30;;;33.90;36.90;;;;;;4955297;28;183166;-82
2022/07/18 10:59:19;;;;;;;7.40;2.00;;;34.00;36.80;;;;;;4990289;28;20050;-82
2022/07/18 11:01:51;;;;;;;7.93;2.20;;;34.10;37.70;;;;;;4940271;28;207516;-83
2022/07/18 11:04:24;;;;;;;10.07;2.80;;;34.30;37.80;;;;;;4967764;28;20065;-83
2022/07/18 11:06:56;;;;;;;8.68;2.10;;;34.50;37.40;;;;;;4945474;28;206772;-82
2022/07/18 11:09:37;;;;;;;7.95;2.17;;;34.70;36.90;;;;;;4974094;28;20381;-81
2022/07/18 11:12:30;;;;;;;8.80;2.20;;;34.70;35.10;;;;;;4920109;28;207642;-82
2022/07/18 11:15:10;;;;;;;9.00;2.30;;;34.70;35.30;;;;;;4973545;28;20058;-82
2022/07/18 11:17:56;;;;;;;7.75;2.35;;;34.70;36.70;;;;;;4936865;28;216472;-82
2022/07/18 11:20:26;;;;;;;8.88;2.45;;;35.00;37.80;;;;;;4956471;28;211333;-84
2022/07/18 11:22:52;;;;;;;7.85;2.13;;;35.20;36.90;;;;;;4947898;28;209485;-84
2022/07/18 11:25:18;;;;;;;7.30;2.30;;;35.30;36.20;;;;;;4971766;28;206462;-84
2022/07/18 11:27:45;;;;;;;8.85;2.20;;;35.50;36.10;;;;;;4946400;28;205320;-84
2022/07/18 11:30:19;;;;;;;9.20;2.58;;;35.20;35.70;;;;;;4991045;28;20062;-84
2022/07/18 11:32:45;;;;;;;10.55;2.30;;;35.20;36.80;;;;;;4923172;28;201396;-84
2022/07/18 11:35:14;;;;;;;7.88;2.25;;;35.40;37.60;;;;;;4992293;28;20046;-83
2022/07/18 11:37:50;;;;;;;9.93;2.50;;;35.40;37.00;;;;;;4953815;28;206799;-83
2022/07/18 11:40:17;;;;;;;8.30;2.30;;;35.70;35.60;;;;;;4991978;28;20072;-83
2022/07/18 11:42:43;;;;;;;8.13;2.40;;;35.30;35.90;;;;;;4953514;28;251624;-82
2022/07/18 11:45:12;;;;;;;7.97;2.63;;;35.50;36.70;;;;;;4989945;28;20050;-81
2022/07/18 11:47:39;;;;;;;8.13;2.80;;;35.40;35.60;;;;;;4933241;28;165244;-82
2022/07/18 11:50:06;;;;;;;8.50;2.60;;;35.20;35.20;;;;;;4993065;28;20419;-82
2022/07/18 11:52:32;;;;;;;8.65;2.60;;;34.70;35.70;;;;;;4951147;28;200061;-81
2022/07/18 11:55:00;;;;;;;11.10;2.95;;;34.70;36.20;;;;;;5015679;28;20057;-84
2022/07/18 11:57:29;;;;;;;8.27;2.80;;;34.50;35.20;;;;;;4948627;28;218109;-84
2022/07/18 11:59:55;;;;;;;13.35;2.50;;;34.10;35.40;;;;;;4974722;28;20054;-83
2022/07/18 12:02:59;;;;;;;7.63;2.55;;;33.80;35.70;;;;;;4932144;28;207604;-84
2022/07/18 12:05:38;;;;;;;8.82;2.80;;;33.60;35.50;;;;;;4963356;28;208114;-84
2022/07/18 12:08:31;;;;;;;8.57;2.60;;;33.40;35.70;;;;;;4941822;28;208817;-84
2022/07/18 12:11:14;;;;;;;7.88;2.70;;;33.40;36.20;;;;;;4953861;28;191671;-84
2022/07/18 12:13:57;;;;;;;11.30;2.70;;;33.60;36.60;;;;;;4982338;28;20069;-83
2022/07/18 12:16:23;;;;;;;8.63;2.92;;;33.40;35.60;;;;;;4950856;28;209213;-82
2022/07/18 12:18:55;;;;;;;8.75;3.30;;;33.30;35.20;;;;;;4970768;28;20065;-83
2022/07/18 12:21:22;;;;;;;7.93;3.00;;;33.10;35.60;;;;;;4934698;28;215366;-83
2022/07/18 12:23:48;;;;;;;9.73;2.85;;;33.00;36.80;;;;;;4983755;28;20053;-84
2022/07/18 12:26:31;;;;;;;9.60;3.00;;;33.10;35.90;;;;;;4939780;28;201677;-83
2022/07/18 12:29:08;;;;;;;8.80;2.80;;;33.00;35.60;;;;;;4990861;28;20050;-83
2022/07/18 12:31:38;;;;;;;7.63;2.85;;;33.10;36.00;;;;;;4945067;28;205080;-83
2022/07/18 12:34:16;;;;;;;9.23;2.80;;;33.40;35.40;;;;;;4991600;28;20051;-82
2022/07/18 12:36:53;;;;;;;8.75;3.20;;;33.60;35.30;;;;;;4953043;28;199068;-83
2022/07/18 12:39:33;;;;;;;8.80;2.97;;;33.90;35.20;;;;;;4972534;28;20065;-83
2022/07/18 12:42:00;;;;;;;;;;;34.10;35.60;;;;;;4959060;28;206314;-83
2022/07/18 12:44:28;;;;;;;9.30;2.90;;;34.00;34.70;;;;;;4980170;28;20556;-83